Time;durP1;ratioP1;P1;durP2;ratioP2;P2;SDS_P1;SDS_P2;PMS_P1;PMS_P2;Temp;Humidity;BMP_temperature;BMP_pressure;BME280_temperature;BME280_humidity;BME280_pressure;Samples;Min_cycle;Max_cycle;Signal;HPM_P1;HPM_P2
2021/08/16 00:02:25;;;;;;;15.30;11.60;;;19.00;99.90;;;18.27;100.00;97454.00;5026250;28;20519;-82
2021/08/16 00:04:54;;;;;;;12.53;11.30;;;19.00;99.90;;;18.33;99.88;97458.38;5011518;28;20544;-82
2021/08/16 00:07:21;;;;;;;11.67;10.60;;;19.10;99.90;;;18.35;100.00;97464.38;5019943;28;20475;-82
2021/08/16 00:09:48;;;;;;;13.90;10.57;;;19.10;99.90;;;18.33;99.61;97436.50;5041923;28;20474;-81
2021/08/16 00:12:15;;;;;;;14.43;11.27;;;19.20;99.90;;;18.46;97.54;97446.00;5031077;28;20435;-82
2021/08/16 00:14:44;;;;;;;12.03;10.93;;;19.20;99.90;;;18.55;97.73;97449.78;5023571;28;20471;-82
2021/08/16 00:17:13;;;;;;;11.80;10.23;;;19.30;99.90;;;18.54;96.89;97452.81;5023627;28;20664;-82
2021/08/16 00:19:40;;;;;;;13.33;10.33;;;19.30;99.40;;;18.70;96.22;97450.81;5022276;28;20510;-83
2021/08/16 00:22:08;;;;;;;11.00;9.47;;;19.40;98.90;;;18.75;95.31;97444.50;5004991;28;20454;-83
2021/08/16 00:24:37;;;;;;;11.17;9.30;;;19.50;97.70;;;18.61;94.78;97420.50;5025825;28;20525;-83
2021/08/16 00:27:07;;;;;;;13.63;10.83;;;19.40;97.10;;;18.79;94.79;97448.28;5029630;28;20496;-83
2021/08/16 00:29:34;;;;;;;14.00;10.00;;;19.50;97.00;;;18.69;94.10;97411.69;5028625;28;20478;-83
2021/08/16 00:32:03;;;;;;;10.50;9.40;;;19.50;96.30;;;18.64;94.70;97425.41;5015943;28;20456;-83
2021/08/16 00:34:30;;;;;;;11.53;10.33;;;19.50;96.70;;;18.63;95.31;97437.44;5017586;28;22209;-83
2021/08/16 00:36:57;;;;;;;11.30;10.10;;;19.40;97.40;;;18.59;94.96;97425.44;5018549;28;20452;-83
2021/08/16 00:39:25;;;;;;;12.07;9.63;;;19.30;97.00;;;18.52;94.70;97425.75;5019635;28;20451;-83
2021/08/16 00:41:52;;;;;;;12.57;10.43;;;19.30;96.80;;;18.38;96.18;97430.19;5008993;28;20531;-83
2021/08/16 00:44:19;;;;;;;12.73;10.70;;;19.20;98.00;;;18.31;96.78;97424.19;5020444;28;20452;-83
2021/08/16 00:46:46;;;;;;;12.70;10.90;;;19.10;99.20;;;18.36;96.60;97430.47;5004147;28;20456;-83
2021/08/16 00:49:15;;;;;;;10.57;9.57;;;19.10;99.00;;;18.34;96.96;97421.72;5018614;28;20456;-82
2021/08/16 00:51:45;;;;;;;11.53;10.07;;;19.10;99.70;;;18.33;97.34;97425.56;5022274;28;20501;-82
2021/08/16 00:54:14;;;;;;;10.93;10.03;;;19.10;99.90;;;18.39;96.72;97424.44;5021455;28;20452;-82
2021/08/16 00:56:42;;;;;;;11.20;10.10;;;19.10;99.60;;;18.37;96.77;97425.84;5009362;28;20546;-82
2021/08/16 00:59:12;;;;;;;11.30;10.30;;;19.10;99.70;;;18.30;96.68;97409.72;5018457;28;20451;-82
2021/08/16 01:01:39;;;;;;;11.63;10.73;;;19.10;99.70;;;18.24;97.15;97402.63;5026182;28;20479;-81
2021/08/16 01:04:07;;;;;;;11.40;10.30;;;19.00;99.90;;;18.24;97.15;97395.25;5022731;28;20468;-81
2021/08/16 01:06:35;;;;;;;12.93;10.40;;;19.00;99.90;;;18.31;97.10;97416.00;5018885;28;21035;-82
2021/08/16 01:09:04;;;;;;;20.37;10.13;;;19.00;99.90;;;18.17;97.59;97396.66;5019924;28;20466;-82
2021/08/16 01:11:33;;;;;;;12.13;10.87;;;19.00;99.90;;;18.16;97.90;97408.69;5020522;28;20539;-82
2021/08/16 01:14:05;;;;;;;13.40;11.20;;;18.90;99.90;;;18.06;98.37;97399.44;5017545;28;20444;-82
2021/08/16 01:16:32;;;;;;;13.37;10.50;;;18.80;99.90;;;18.03;98.65;97400.00;5010406;28;20570;-82
2021/08/16 01:18:59;;;;;;;14.07;10.67;;;18.80;99.90;;;18.05;98.59;97397.00;5030321;28;20558;-83
2021/08/16 01:21:26;;;;;;;12.13;11.00;;;18.80;99.90;;;17.75;98.93;97361.25;5029120;28;20470;-81
2021/08/16 01:23:55;;;;;;;11.47;10.40;;;18.70;99.90;;;17.97;99.02;97385.50;5026196;28;20466;-82
2021/08/16 01:26:23;;;;;;;10.73;9.70;;;18.80;99.90;;;18.00;98.92;97395.06;5009570;28;20468;-81
2021/08/16 01:29:01;;;;;;;16.43;11.60;;;18.70;99.90;;;18.06;98.87;97393.16;5033767;28;20463;-82
2021/08/16 01:31:31;;;;;;;13.10;11.90;;;18.80;99.90;;;18.04;98.44;97385.22;5025922;28;20443;-82
2021/08/16 01:33:58;;;;;;;11.67;10.53;;;18.90;99.90;;;18.02;99.14;97394.75;5029517;28;20528;-82
2021/08/16 01:36:25;;;;;;;12.67;11.40;;;18.70;99.90;;;17.94;99.16;97393.44;5023926;28;20465;-82
2021/08/16 01:38:53;;;;;;;15.20;10.40;;;18.70;99.90;;;17.99;99.17;97393.44;5018221;28;20563;-82
2021/08/16 01:41:20;;;;;;;12.13;10.90;;;18.70;99.90;;;17.96;99.08;97400.25;5023076;28;20547;-82
2021/08/16 01:43:47;;;;;;;13.80;10.87;;;18.70;99.90;;;17.90;99.22;97401.38;5022053;28;20462;-82
2021/08/16 01:46:16;;;;;;;13.27;11.70;;;18.70;99.90;;;17.82;99.85;97402.78;5018926;28;20919;-82
2021/08/16 01:48:43;;;;;;;11.93;10.83;;;18.60;99.90;;;17.75;100.00;97402.25;5015819;28;20523;-81
2021/08/16 01:51:13;;;;;;;11.70;10.63;;;18.50;99.90;;;17.68;100.00;97405.25;5027459;28;20456;-82
2021/08/16 01:53:52;;;;;;;12.27;10.97;;;18.40;99.90;;;17.60;100.00;97402.28;5013170;28;20459;-82
2021/08/16 01:56:20;;;;;;;14.63;12.50;;;18.40;99.90;;;17.56;100.00;97400.09;5007824;28;20463;-82
2021/08/16 01:58:51;;;;;;;11.30;10.20;;;18.40;99.90;;;17.54;100.00;97412.38;5031916;28;21265;-83
2021/08/16 02:01:19;;;;;;;12.03;10.93;;;18.30;99.90;;;17.49;100.00;97401.47;5006466;28;20472;-82
2021/08/16 02:03:46;;;;;;;11.73;10.63;;;18.30;99.90;;;17.46;100.00;97391.91;5028461;28;20542;-82
2021/08/16 02:06:14;;;;;;;13.40;11.83;;;18.30;99.90;;;17.46;100.00;97391.91;5016797;28;20447;-82
2021/08/16 02:08:41;;;;;;;15.20;11.43;;;18.30;99.90;;;17.41;100.00;97383.75;5019433;28;20456;-80
2021/08/16 02:11:11;;;;;;;11.60;10.40;;;18.20;99.90;;;17.33;100.00;97381.56;5030057;28;20487;-83
2021/08/16 02:13:38;;;;;;;13.07;11.67;;;18.20;99.90;;;17.40;100.00;97395.75;5042076;28;20518;-83
2021/08/16 02:16:06;;;;;;;11.53;10.43;;;18.20;99.90;;;17.38;100.00;97385.09;5026514;28;20443;-82
2021/08/16 02:18:35;;;;;;;12.10;11.00;;;18.20;99.90;;;17.45;100.00;97390.28;5037923;28;20531;-82
2021/08/16 02:21:02;;;;;;;12.87;11.37;;;18.20;99.90;;;17.59;100.00;97381.53;5021278;28;20464;-82
2021/08/16 02:23:29;;;;;;;12.77;11.53;;;18.30;99.90;;;17.53;100.00;97367.06;5029320;28;20473;-82
2021/08/16 02:25:56;;;;;;;13.00;11.70;;;18.30;99.90;;;17.66;100.00;97369.22;5016815;28;20499;-83
2021/08/16 02:28:25;;;;;;;11.90;10.70;;;18.40;99.90;;;17.67;100.00;97365.38;5029195;28;20462;-83
2021/08/16 02:30:52;;;;;;;11.37;10.37;;;18.40;99.90;;;17.72;100.00;97367.28;5030730;28;20467;-83
2021/08/16 02:33:19;;;;;;;12.40;11.30;;;18.50;99.90;;;17.77;100.00;97363.72;5035898;28;20474;-83
2021/08/16 02:35:47;;;;;;;11.77;10.77;;;18.50;99.90;;;17.66;99.91;97347.34;5019615;28;20515;-83
2021/08/16 02:38:14;;;;;;;13.70;12.00;;;18.40;99.90;;;17.66;100.00;97358.28;5013732;28;20475;-83
2021/08/16 02:40:42;;;;;;;12.17;10.97;;;18.40;99.90;;;17.63;100.00;97363.47;5020940;28;20475;-83
2021/08/16 02:43:09;;;;;;;15.43;12.33;;;18.40;99.90;;;17.58;100.00;97367.03;5026936;28;20450;-83
2021/08/16 02:45:36;;;;;;;13.63;12.27;;;18.40;99.90;;;17.44;100.00;97361.34;5012543;28;20452;-83
2021/08/16 02:48:04;;;;;;;12.87;11.77;;;18.30;99.90;;;17.51;100.00;97380.97;5026300;28;20474;-83
2021/08/16 02:50:32;;;;;;;14.10;12.90;;;18.30;99.90;;;17.47;100.00;97370.91;5017599;28;20452;-82
2021/08/16 02:53:00;;;;;;;12.60;11.50;;;18.20;99.90;;;17.51;100.00;97377.44;5018492;28;20461;-82
2021/08/16 02:55:29;;;;;;;12.30;11.20;;;18.20;99.90;;;17.46;100.00;97370.06;5024781;28;21002;-83
2021/08/16 02:57:56;;;;;;;12.10;11.00;;;18.20;99.90;;;17.46;100.00;97378.25;5029936;28;20546;-83
2021/08/16 03:00:24;;;;;;;13.37;12.27;;;18.20;99.90;;;17.38;100.00;97376.91;5028740;28;20467;-82
2021/08/16 03:02:52;;;;;;;13.70;12.40;;;18.20;99.90;;;17.36;100.00;97370.09;5005814;28;20486;-83
2021/08/16 03:05:19;;;;;;;13.77;12.50;;;18.20;99.90;;;17.39;100.00;97381.28;5024859;28;20450;-82
2021/08/16 03:07:47;;;;;;;13.20;12.00;;;18.20;99.90;;;17.34;100.00;97381.28;5021841;28;20447;-82
2021/08/16 03:10:16;;;;;;;12.77;11.67;;;18.20;99.90;;;17.35;100.00;97390.28;5016977;28;20490;-83
2021/08/16 03:12:44;;;;;;;14.17;12.73;;;18.10;99.90;;;17.26;100.00;97388.13;5018312;28;22205;-82
2021/08/16 03:15:13;;;;;;;12.90;11.70;;;18.00;99.90;;;17.04;100.00;97380.22;5019943;28;20809;-82
2021/08/16 03:17:40;;;;;;;15.10;13.30;;;18.00;99.90;;;16.99;100.00;97378.31;5020020;28;20451;-81
2021/08/16 03:20:09;;;;;;;12.90;11.70;;;17.90;99.90;;;16.97;100.00;97380.47;5018492;28;20482;-82
2021/08/16 03:22:36;;;;;;;15.37;12.50;;;17.90;99.90;;;17.14;100.00;97393.06;5031456;28;20489;-82
2021/08/16 03:25:06;;;;;;;15.83;12.07;;;17.90;99.90;;;16.98;100.00;97392.19;5049100;28;20439;-82
2021/08/16 03:27:36;;;;;;;13.60;11.77;;;17.80;99.90;;;16.95;100.00;97393.56;5033641;28;20440;-82
2021/08/16 03:30:05;;;;;;;13.20;12.00;;;17.80;99.90;;;16.87;100.00;97375.00;5015486;28;20500;-82
2021/08/16 03:32:32;;;;;;;15.77;11.57;;;17.80;99.90;;;16.88;100.00;97386.75;5026021;28;20479;-82
2021/08/16 03:34:59;;;;;;;14.07;12.70;;;17.80;99.90;;;16.92;100.00;97383.22;5032359;28;20438;-83
2021/08/16 03:37:32;;;;;;;13.23;12.00;;;17.80;99.90;;;17.11;100.00;97379.97;5021564;28;20480;-82
2021/08/16 03:39:59;;;;;;;13.53;12.13;;;17.80;99.90;;;17.18;100.00;97368.75;5029386;28;20490;-82
2021/08/16 03:42:26;;;;;;;13.50;12.10;;;17.90;99.90;;;17.13;100.00;97350.47;5024765;28;20558;-82
2021/08/16 03:44:58;;;;;;;13.00;11.70;;;17.90;99.90;;;16.96;100.00;97351.56;5022646;28;21002;-82
2021/08/16 03:47:26;;;;;;;13.77;12.47;;;17.90;99.90;;;16.95;100.00;97360.84;5020601;28;20436;-82
2021/08/16 03:49:54;;;;;;;14.33;12.77;;;17.80;99.90;;;17.01;100.00;97347.22;5018989;28;20519;-82
2021/08/16 03:52:21;;;;;;;17.83;11.93;;;17.80;99.90;;;17.18;100.00;97355.13;5021802;28;20471;-83
2021/08/16 03:54:48;;;;;;;12.57;11.27;;;17.90;99.90;;;17.22;100.00;97348.00;5020842;28;20535;-82
2021/08/16 03:57:16;;;;;;;13.20;10.80;;;18.00;99.90;;;17.35;100.00;97339.25;5017206;28;20505;-83
2021/08/16 03:59:44;;;;;;;11.93;10.83;;;18.10;99.90;;;17.56;99.46;97337.28;5026876;28;20470;-82
2021/08/16 04:02:12;;;;;;;13.37;11.20;;;18.30;99.90;;;17.62;98.46;97329.91;5029833;28;20622;-82
2021/08/16 04:04:41;;;;;;;12.87;11.53;;;18.30;99.90;;;17.74;98.11;97345.13;5011333;28;20451;-82
2021/08/16 04:07:11;;;;;;;11.77;10.63;;;18.40;99.90;;;17.66;98.44;97346.53;5026126;28;20470;-82
2021/08/16 04:09:38;;;;;;;13.27;12.00;;;18.40;99.90;;;17.66;98.58;97352.00;5020841;28;20963;-83
2021/08/16 04:12:06;;;;;;;12.60;11.50;;;18.40;99.90;;;17.60;98.80;97353.13;5019389;28;20530;-82
2021/08/16 04:14:34;;;;;;;12.83;11.50;;;18.40;99.90;;;17.69;98.60;97370.59;5021917;28;20554;-82
2021/08/16 04:17:01;;;;;;;12.43;11.40;;;18.40;99.90;;;17.75;98.25;97374.91;5023681;28;20997;-82
2021/08/16 04:19:30;;;;;;;12.50;11.27;;;18.50;99.90;;;17.77;99.29;97375.47;5029800;28;20470;-82
2021/08/16 04:21:57;;;;;;;14.87;11.83;;;18.60;99.90;;;17.74;100.00;97369.72;5023797;28;20470;-82
2021/08/16 04:24:24;;;;;;;14.37;12.60;;;18.50;99.90;;;17.70;100.00;97364.03;5035821;28;20478;-82
2021/08/16 04:26:52;;;;;;;13.83;12.60;;;18.50;99.90;;;17.60;100.00;97353.94;5026745;28;20448;-82
2021/08/16 04:29:19;;;;;;;13.67;12.43;;;18.50;99.90;;;17.64;100.00;97354.19;5023323;28;20891;-82
2021/08/16 04:31:47;;;;;;;17.33;13.13;;;18.50;99.90;;;17.64;100.00;97359.66;5014531;28;20459;-83
2021/08/16 04:34:14;;;;;;;14.17;12.80;;;18.50;99.90;;;17.67;100.00;97359.13;5014633;28;20546;-82
2021/08/16 04:36:42;;;;;;;15.20;13.70;;;18.50;99.90;;;17.64;100.00;97354.19;5017134;28;20876;-83
2021/08/16 04:39:10;;;;;;;15.17;13.53;;;18.50;99.90;;;17.60;100.00;97347.66;5017941;28;20577;-83
2021/08/16 04:41:37;;;;;;;17.90;15.07;;;18.50;99.90;;;17.81;100.00;97354.66;5020126;28;20479;-82
2021/08/16 04:44:05;;;;;;;15.67;13.97;;;18.60;99.90;;;18.04;100.00;97382.50;5024716;28;20515;-82
2021/08/16 04:46:34;;;;;;;15.20;13.70;;;18.70;99.90;;;18.12;100.00;97383.84;5014661;28;20547;-82
2021/08/16 04:49:01;;;;;;;15.40;13.80;;;18.80;99.90;;;18.16;100.00;97375.91;5025397;28;20503;-81
2021/08/16 04:51:30;;;;;;;15.13;13.70;;;18.90;99.90;;;18.26;100.00;97389.50;5004052;28;20447;-82
2021/08/16 04:53:59;;;;;;;14.40;13.00;;;19.00;99.90;;;18.24;100.00;97391.69;5039819;28;20478;-82
2021/08/16 04:56:26;;;;;;;15.37;13.93;;;19.00;99.90;;;18.20;100.00;97396.94;5027749;28;20447;-82
2021/08/16 04:58:56;;;;;;;14.87;13.47;;;19.10;99.90;;;18.29;100.00;97412.72;5025232;28;20444;-83
2021/08/16 05:01:25;;;;;;;19.83;15.80;;;19.10;99.90;;;18.09;100.00;97385.19;5027675;28;20468;-84
2021/08/16 05:03:52;;;;;;;18.97;16.87;;;19.00;99.90;;;17.77;100.00;97397.31;5021844;28;20448;-83
2021/08/16 05:06:28;;;;;;;21.57;18.97;;;18.80;99.90;;;17.73;100.00;97390.78;5021975;28;20475;-82
2021/08/16 05:08:56;;;;;;;22.63;19.53;;;18.70;99.90;;;17.68;100.00;97394.34;5019633;28;21010;-83
2021/08/16 05:11:26;;;;;;;24.17;20.23;;;18.60;99.90;;;17.75;100.00;97404.97;5025981;28;21044;-83
2021/08/16 05:13:53;;;;;;;24.83;21.93;;;18.60;99.90;;;17.79;100.00;97405.25;5020085;28;20506;-83
2021/08/16 05:16:23;;;;;;;22.57;20.43;;;18.70;99.90;;;18.03;100.00;97416.41;5018616;28;20552;-83
2021/08/16 05:18:50;;;;;;;22.73;19.80;;;18.80;99.90;;;17.91;100.00;97391.25;5020269;28;20478;-83
2021/08/16 05:21:18;;;;;;;22.93;20.90;;;18.80;99.90;;;18.07;100.00;97412.00;5024473;28;20479;-83
2021/08/16 05:23:45;;;;;;;24.27;22.00;;;18.90;99.90;;;18.14;100.00;97419.91;5028558;28;20483;-83
2021/08/16 05:26:12;;;;;;;26.20;21.20;;;18.90;99.90;;;18.18;100.00;97425.63;5028639;28;20449;-82
2021/08/16 05:28:41;;;;;;;24.00;21.47;;;18.90;99.90;;;18.11;100.00;97428.66;5017271;28;20511;-83
2021/08/16 05:31:09;;;;;;;24.37;21.97;;;18.90;99.90;;;18.09;100.00;97411.72;5025318;28;20463;-83
2021/08/16 05:33:36;;;;;;;24.00;21.60;;;18.90;99.90;;;18.15;100.00;97412.53;5025220;28;20443;-84
2021/08/16 05:36:06;;;;;;;25.07;22.37;;;19.00;99.90;;;18.15;100.00;97418.81;5031529;28;20512;-83
2021/08/16 05:38:33;;;;;;;23.93;21.53;;;18.90;99.90;;;18.30;100.00;97426.13;5010822;28;20826;-83
2021/08/16 05:41:02;;;;;;;23.10;21.00;;;19.00;99.90;;;18.33;100.00;97438.41;5019772;28;20437;-84
2021/08/16 05:43:29;;;;;;;24.27;21.80;;;19.10;99.90;;;18.38;100.00;97432.94;5016471;28;20534;-83
2021/08/16 05:46:03;;;;;;;23.10;20.80;;;19.10;99.90;;;18.48;100.00;97448.47;5018912;28;20486;-83
2021/08/16 05:48:30;;;;;;;26.60;20.50;;;19.20;99.90;;;18.51;100.00;97439.69;5018520;28;20465;-83
2021/08/16 05:50:59;;;;;;;23.57;21.23;;;19.30;99.90;;;18.50;100.00;97443.53;5014930;28;20546;-83
2021/08/16 05:53:27;;;;;;;20.93;18.83;;;19.30;99.90;;;18.36;100.00;97421.47;5018606;28;20447;-82
2021/08/16 05:55:55;;;;;;;20.77;18.67;;;19.30;99.90;;;18.46;100.00;97456.13;5010244;28;20448;-82
2021/08/16 05:58:22;;;;;;;21.57;19.53;;;19.30;99.90;;;18.38;100.00;97454.81;5013340;28;20440;-82
2021/08/16 06:00:49;;;;;;;23.33;20.83;;;19.20;99.90;;;18.41;100.00;97449.56;5015339;28;20554;-82
2021/08/16 06:03:20;;;;;;;22.27;20.20;;;19.20;99.90;;;18.47;100.00;97461.31;5013184;28;20490;-83
2021/08/16 06:05:47;;;;;;;22.87;20.67;;;19.30;99.90;;;18.61;100.00;97463.44;5011687;28;20524;-82
2021/08/16 06:08:20;;;;;;;23.30;21.10;;;19.40;99.90;;;18.58;100.00;97467.56;5019222;28;20811;-83
2021/08/16 06:10:47;;;;;;;22.70;20.57;;;19.40;99.90;;;18.72;100.00;97467.75;5015300;28;20498;-83
2021/08/16 06:13:15;;;;;;;21.97;19.80;;;19.50;99.90;;;18.80;100.00;97460.88;5018693;28;20459;-82
2021/08/16 06:15:43;;;;;;;20.53;18.73;;;19.60;99.90;;;18.97;100.00;97483.19;5018438;28;20842;-82
2021/08/16 06:18:11;;;;;;;21.07;19.17;;;19.70;99.90;;;18.99;100.00;97474.75;5028026;28;20451;-83
2021/08/16 06:20:42;;;;;;;22.00;20.00;;;19.80;99.90;;;19.13;100.00;97485.06;5022836;28;20447;-84
2021/08/16 06:23:11;;;;;;;20.40;18.70;;;19.80;99.90;;;19.33;100.00;97500.50;5016656;28;21320;-84
2021/08/16 06:25:40;;;;;;;21.10;18.90;;;20.00;99.90;;;19.36;100.00;97495.28;5015842;28;20550;-83
2021/08/16 06:28:07;;;;;;;18.40;16.53;;;20.10;99.90;;;19.45;100.00;97503.69;5020465;28;20479;-84
2021/08/16 06:30:36;;;;;;;19.67;17.70;;;20.20;99.90;;;19.39;100.00;97500.19;5014424;28;21274;-83
2021/08/16 06:33:04;;;;;;;20.43;18.50;;;20.20;99.90;;;19.38;100.00;97497.75;5026652;28;20447;-83
2021/08/16 06:35:32;;;;;;;19.97;18.03;;;20.20;99.90;;;19.53;100.00;97508.56;5008266;28;20536;-83
2021/08/16 06:38:09;;;;;;;20.70;18.53;;;20.30;99.90;;;19.70;100.00;97515.56;5019779;28;20502;-83
2021/08/16 06:40:38;;;;;;;19.90;18.13;;;20.40;99.90;;;19.69;100.00;97502.97;5020240;28;20451;-84
2021/08/16 06:43:10;;;;;;;19.20;17.20;;;20.50;99.90;;;19.73;100.00;97504.03;5025565;28;20456;-84
2021/08/16 06:45:38;;;;;;;19.03;17.37;;;20.50;99.90;;;19.70;100.00;97507.34;5042034;28;20490;-83
2021/08/16 06:48:08;;;;;;;16.83;15.33;;;20.50;99.90;;;19.87;98.05;97509.66;5026666;28;20589;-84
2021/08/16 06:50:38;;;;;;;16.13;14.57;;;20.60;99.90;;;19.91;98.18;97515.34;5016363;28;20456;-84
2021/08/16 06:53:07;;;;;;;14.10;12.80;;;20.70;99.90;;;19.84;95.95;97517.63;5007547;28;20456;-83
2021/08/16 06:55:35;;;;;;;14.90;13.50;;;20.70;97.00;;;19.86;95.51;97529.13;5017790;28;20882;-83
2021/08/16 06:58:02;;;;;;;15.17;13.73;;;20.60;96.50;;;19.87;94.90;97508.81;5017469;28;20452;-83
2021/08/16 07:00:30;;;;;;;15.60;12.83;;;20.70;96.60;;;19.98;93.32;97531.50;5020552;28;20461;-83
2021/08/16 07:02:58;;;;;;;15.20;13.70;;;20.70;94.90;;;20.09;92.50;97538.53;5027075;28;20870;-80
2021/08/16 07:05:26;;;;;;;14.60;12.57;;;20.90;94.70;;;19.98;92.05;97509.56;5014775;28;20497;-89
2021/08/16 07:07:53;;;;;;;14.47;12.97;;;20.90;93.90;;;20.10;91.56;97507.25;5020477;28;20483;-83
2021/08/16 07:10:26;;;;;;;14.00;12.60;;;21.00;93.90;;;20.34;91.03;97540.19;5014348;28;20519;-86
2021/08/16 07:12:53;;;;;;;13.47;12.23;;;21.10;93.40;;;20.07;91.25;97535.25;5019646;28;20451;-83
2021/08/16 07:15:21;;;;;;;14.03;12.70;;;21.00;93.10;;;20.08;91.73;97524.00;5031496;28;20978;-82
2021/08/16 07:17:48;;;;;;;13.87;12.57;;;21.00;93.60;;;20.35;91.12;97551.97;5050963;28;20478;-80
2021/08/16 07:20:17;;;;;;;14.03;12.73;;;21.20;93.30;;;20.49;90.46;97552.09;5033561;28;20482;-82
2021/08/16 07:22:44;;;;;;;13.43;12.30;;;21.30;92.80;;;20.73;89.28;97562.25;5023945;28;20505;-82
2021/08/16 07:25:13;;;;;;;14.07;11.57;;;21.50;92.60;;;20.83;87.93;97551.16;5031613;28;20440;-82
2021/08/16 07:27:43;;;;;;;10.93;9.50;;;21.70;91.80;;;20.72;82.66;97544.16;5014675;28;20450;-82
2021/08/16 07:30:13;;;;;;;10.17;9.27;;;21.80;88.10;;;20.50;83.32;97556.47;5014664;28;20483;-83
2021/08/16 07:32:41;;;;;;;11.93;10.67;;;21.50;88.10;;;20.65;82.84;97572.75;5024679;28;20459;-82
2021/08/16 07:35:11;;;;;;;10.83;9.73;;;21.50;88.00;;;20.65;82.51;97560.97;5027013;28;20554;-81
2021/08/16 07:37:39;;;;;;;11.77;8.77;;;21.50;87.40;;;20.58;80.46;97544.03;5019529;28;20459;-81
2021/08/16 07:40:08;;;;;;;11.93;8.53;;;21.50;85.50;;;20.66;78.34;97554.38;5024882;28;20451;-81
2021/08/16 07:42:35;;;;;;;10.60;7.97;;;21.50;83.20;;;20.90;76.58;97546.13;5016851;28;20505;-80
2021/08/16 07:45:08;;;;;;;6.80;6.20;;;21.70;81.80;;;20.84;74.52;97539.06;5023425;28;20451;-81
2021/08/16 07:47:39;;;;;;;7.57;6.60;;;21.80;78.70;;;20.72;74.14;97574.34;5027421;28;20459;-82
2021/08/16 07:50:11;;;;;;;6.70;5.83;;;21.60;77.60;;;20.77;72.45;97557.81;5035826;28;20482;-82
2021/08/16 07:52:39;;;;;;;6.97;6.27;;;21.60;76.10;;;20.72;72.66;97560.63;5021537;28;20458;-82
2021/08/16 07:55:08;;;;;;;8.07;5.57;;;21.60;76.00;;;20.74;72.08;97552.91;5023811;28;20463;-81
2021/08/16 07:57:37;;;;;;;6.95;6.10;;;21.60;75.30;;;21.13;70.56;97568.34;5024596;28;20569;-81
2021/08/16 08:00:16;;;;;;;7.60;5.80;;;21.80;74.60;;;21.18;70.46;97540.00;5025293;28;20231;-81
2021/08/16 08:02:47;;;;;;;6.80;6.10;;;21.90;74.10;;;21.26;70.08;97549.50;5035443;28;20460;-81
2021/08/16 08:05:16;;;;;;;5.80;5.20;;;22.00;73.50;;;21.31;69.57;97538.44;5017751;28;20459;-80
2021/08/16 08:07:44;;;;;;;6.20;5.67;;;22.10;73.20;;;21.50;69.74;97557.63;5014349;28;21017;-85
2021/08/16 08:10:14;;;;;;;7.07;5.90;;;22.20;73.20;;;21.62;68.35;97551.72;5021556;28;20459;-82
2021/08/16 08:12:44;;;;;;;8.70;5.30;;;22.40;72.20;;;21.77;68.32;97559.72;5029241;28;20923;-81
2021/08/16 08:15:17;;;;;;;6.60;5.70;;;22.50;72.10;;;21.63;68.03;97556.88;5027822;28;20765;-82
2021/08/16 08:17:45;;;;;;;6.63;5.93;;;22.40;71.80;;;21.52;68.90;97553.50;5036501;28;20479;-82
2021/08/16 08:20:14;;;;;;;7.27;6.17;;;22.30;71.80;;;21.83;68.34;97560.44;5023570;28;20503;-82
2021/08/16 08:22:43;;;;;;;8.53;4.80;;;22.50;72.00;;;21.86;65.28;97554.34;5020803;28;20548;-81
2021/08/16 08:25:11;;;;;;;7.00;5.33;;;22.70;69.70;;;21.92;65.18;97552.34;5022157;28;20843;-82
2021/08/16 08:27:40;;;;;;;6.90;5.50;;;22.70;69.20;;;21.86;65.57;97572.78;5026812;28;20447;-82
2021/08/16 08:30:09;;;;;;;9.33;6.27;;;22.60;68.90;;;21.88;65.45;97551.28;5017287;28;20471;-83
2021/08/16 08:32:52;;;;;;;8.73;5.10;;;22.70;69.20;;;22.21;65.16;97570.50;5023322;28;20471;-83
2021/08/16 08:35:21;;;;;;;5.47;4.90;;;22.80;69.20;;;22.12;63.69;97578.66;5023473;28;22053;-82
2021/08/16 08:37:54;;;;;;;6.40;5.80;;;23.00;67.80;;;22.05;64.02;97589.25;5017792;28;20540;-82
2021/08/16 08:43:12;;;;;;;5.97;5.27;;;22.70;67.50;;;22.13;63.60;97591.28;5028786;28;21092;-83
2021/08/16 08:45:43;;;;;;;5.50;4.70;;;22.80;67.00;;;22.31;61.98;97592.34;5012947;28;20451;-82
2021/08/16 08:48:17;;;;;;;6.60;5.23;;;23.00;66.20;;;22.15;59.94;97596.50;5030337;28;21125;-83
2021/08/16 08:50:46;;;;;;;5.40;4.50;;;22.90;64.20;;;22.08;58.84;97599.63;5021448;28;20764;-83
2021/08/16 08:53:13;;;;;;;6.17;4.70;;;22.80;63.60;;;22.04;59.55;97587.59;5025703;28;20451;-83
2021/08/16 08:55:40;;;;;;;7.20;4.03;;;22.90;63.60;;;22.39;59.70;97585.31;5026928;28;20432;-85
2021/08/16 08:58:08;;;;;;;6.20;4.90;;;23.00;64.10;;;22.88;58.42;97582.19;5024219;28;20463;-82
2021/08/16 09:00:36;;;;;;;5.67;5.10;;;23.50;63.80;;;22.69;57.67;97588.63;5020754;28;20460;-84
2021/08/16 09:03:06;;;;;;;7.17;5.07;;;23.40;62.60;;;22.48;56.20;97597.31;5011093;28;20471;-83
2021/08/16 09:05:50;;;;;;;5.30;4.60;;;23.40;61.20;;;22.32;54.98;97593.97;5014826;28;20534;-83
2021/08/16 09:08:25;;;;;;;6.00;4.93;;;23.20;59.90;;;22.34;54.66;97590.94;5022346;28;20497;-83
2021/08/16 09:11:04;;;;;;;5.57;4.97;;;23.10;60.00;;;22.18;54.92;97593.13;5021280;28;20458;-83
2021/08/16 09:13:33;;;;;;;6.43;5.73;;;23.10;59.70;;;22.50;53.68;97611.56;5015501;28;20465;-83
2021/08/16 09:16:10;;;;;;;8.83;4.87;;;23.30;59.10;;;22.34;54.17;97597.22;5011861;28;21192;-83
2021/08/16 09:18:38;;;;;;;7.73;5.57;;;23.20;59.10;;;22.25;54.75;97582.56;5014350;28;20877;-85
2021/08/16 09:21:09;;;;;;;5.50;4.80;;;23.20;59.50;;;22.60;55.00;97594.03;5024664;28;20467;-84
2021/08/16 09:23:47;;;;;;;6.10;4.90;;;23.30;59.90;;;22.66;53.09;97580.16;5007739;28;20476;-84
2021/08/16 09:26:25;;;;;;;6.13;5.47;;;23.50;58.90;;;22.53;50.38;97596.41;5037316;28;20797;-83
2021/08/16 09:28:52;;;;;;;7.00;5.60;;;23.40;57.10;;;22.11;50.42;97581.72;5002447;28;20479;-82
2021/08/16 09:31:24;;;;;;;5.93;5.00;;;23.10;56.30;;;22.02;50.18;97584.34;5021793;28;20451;-82
2021/08/16 09:33:56;;;;;;;6.80;5.70;;;23.00;56.20;;;21.97;51.43;97593.50;5023617;28;20451;-83
2021/08/16 09:36:40;;;;;;;6.93;4.90;;;22.80;56.50;;;21.83;52.09;97587.13;5022233;28;20452;-82
2021/08/16 09:39:18;;;;;;;6.27;4.73;;;22.70;56.90;;;21.90;52.96;97587.53;5019613;28;20512;-81
2021/08/16 09:41:48;;;;;;;6.80;5.23;;;22.70;57.30;;;21.79;52.76;97595.97;5046201;28;20451;-82
2021/08/16 09:44:16;;;;;;;5.73;5.13;;;22.60;57.10;;;21.82;53.14;97602.00;5030123;28;20472;-82
2021/08/16 09:46:43;;;;;;;4.93;4.30;;;22.60;57.30;;;21.92;53.07;97579.84;5010951;28;20476;-83
2021/08/16 09:49:17;;;;;;;7.90;5.73;;;22.70;57.70;;;22.25;51.90;97596.31;5014452;28;21049;-83
2021/08/16 09:51:46;;;;;;;7.93;5.30;;;23.00;57.00;;;22.49;50.77;97587.91;5003348;28;20463;-82
2021/08/16 09:54:13;;;;;;;6.33;5.63;;;23.10;56.60;;;22.46;50.84;97590.44;5016896;28;20456;-82
2021/08/16 09:56:42;;;;;;;7.30;5.63;;;23.20;56.40;;;22.72;49.36;97595.47;5021144;28;20473;-83
2021/08/16 09:59:10;;;;;;;7.70;5.20;;;23.30;55.60;;;22.59;48.54;97597.09;5013201;28;20483;-82
2021/08/16 10:01:38;;;;;;;7.10;4.97;;;23.40;55.00;;;22.89;48.58;97583.81;5016726;28;20462;-82
2021/08/16 10:04:07;;;;;;;7.27;4.97;;;23.40;55.30;;;23.35;46.86;97587.56;5009734;28;20482;-83
2021/08/16 10:06:38;;;;;;;6.20;4.63;;;24.00;54.90;;;23.28;46.23;97584.44;5016322;28;20455;-84
2021/08/16 10:09:09;;;;;;;6.33;4.63;;;24.10;54.30;;;23.06;47.05;97583.22;5007336;28;20539;-83
2021/08/16 10:11:38;;;;;;;5.60;4.50;;;23.90;54.20;;;22.75;47.44;97597.63;5017603;28;20503;-83
2021/08/16 10:14:06;;;;;;;7.60;5.00;;;23.60;54.20;;;22.79;48.34;97595.88;5024131;28;20475;-83
2021/08/16 10:16:39;;;;;;;6.60;5.07;;;23.40;54.60;;;23.30;47.93;97577.47;5023787;28;20444;-81
2021/08/16 10:19:11;;;;;;;7.20;4.80;;;23.90;55.20;;;23.46;46.23;97590.91;5025043;28;20459;-89